Main page
METAR-TAF:

METAR-TAF

Airports :

Ciudad Obregón International Airport

Ciudad Obregón, Mexico

latitude: 27-24N, longitude: 109-50W, elevation: 62 m

Current weather observation

The report was made 57 minutes ago, at 23:40 UTC
Wind 8 kt from the South/Southwest
Temperature 23°C
Humidity 41%
Pressure 1012 hPa
Visibility: 16.1 km
Clear sky

METAR: MMCN 032340Z 21008KT 10SM SKC 23/09 A2989 RMK SLP122 HZY

Time: 17:37 (00:37 UTC)

Forecast

The report was made 8 hours and 0 minutes ago, at 16:37 UTC
Forecast valid from 03 at 18 UTC to 04 at 18 UTC
Wind 10 kt from the West/Southwest
Visibility: 10 km
Broken clouds at a height of 20000 ft
Becoming
from 04 at 02 UTC to 04 at 03 UTC
Wind 5 kt from the West/Northwest
Scattered clouds at a height of 20000 ft
From 04 at 1700 UTC
Wind 10 kt from the West/Southwest
Visibility: 10 km
Scattered clouds at a height of 20000 ft

TAF: MMCN 031637Z 0318/0418 25010KT P6SM BKN200 BECMG 0402/0403 30005KT SCT200 FM041700 24010KT P6SM SCT200

Weather observations and forecasts of more than 4000 airports (METAR and TAF reports).

The available stations are represented by yellow and red dots on the map.

Hover mouse over dot to see the name of the station.

Then click to see weather observations and forecasts.

To change the map : click on the green buttons with a black cross to zoom in, on the green button with a dash to zoom out, or on the green arrows for adjacent maps.


METAR-TAF: